sensor_id;sensor_type;location;lat;lon;timestamp;temperature;humidity
66568;DHT22;53422;49.296;6.900;2022-07-21T00:01:34;25.50;61.40
66568;DHT22;53422;49.296;6.900;2022-07-21T00:04:00;25.40;61.30
66568;DHT22;53422;49.296;6.900;2022-07-21T00:06:26;25.40;61.00
66568;DHT22;53422;49.296;6.900;2022-07-21T00:08:51;25.40;60.60
66568;DHT22;53422;49.296;6.900;2022-07-21T00:11:17;25.40;61.10
66568;DHT22;53422;49.296;6.900;2022-07-21T00:13:43;25.40;60.80
66568;DHT22;53422;49.296;6.900;2022-07-21T00:16:08;25.40;60.80
66568;DHT22;53422;49.296;6.900;2022-07-21T00:18:34;25.40;61.00
66568;DHT22;53422;49.296;6.900;2022-07-21T00:21:00;25.40;61.20
66568;DHT22;53422;49.296;6.900;2022-07-21T00:23:26;25.40;61.40
66568;DHT22;53422;49.296;6.900;2022-07-21T00:29:14;25.30;61.70
66568;DHT22;53422;49.296;6.900;2022-07-21T00:31:39;25.30;62.30
66568;DHT22;53422;49.296;6.900;2022-07-21T00:34:05;25.30;61.30
66568;DHT22;53422;49.296;6.900;2022-07-21T00:36:30;25.30;60.80
66568;DHT22;53422;49.296;6.900;2022-07-21T00:38:56;25.20;60.90
66568;DHT22;53422;49.296;6.900;2022-07-21T00:41:22;25.20;61.00
66568;DHT22;53422;49.296;6.900;2022-07-21T00:43:47;25.20;61.70
66568;DHT22;53422;49.296;6.900;2022-07-21T00:46:13;25.20;61.20
66568;DHT22;53422;49.296;6.900;2022-07-21T00:48:38;25.20;61.40
66568;DHT22;53422;49.296;6.900;2022-07-21T00:51:04;25.10;61.00
66568;DHT22;53422;49.296;6.900;2022-07-21T00:53:30;25.10;60.90
66568;DHT22;53422;49.296;6.900;2022-07-21T00:55:56;25.10;60.80
66568;DHT22;53422;49.296;6.900;2022-07-21T00:58:23;25.10;60.90
66568;DHT22;53422;49.296;6.900;2022-07-21T01:00:49;25.10;60.20
66568;DHT22;53422;49.296;6.900;2022-07-21T01:03:15;25.00;61.60
66568;DHT22;53422;49.296;6.900;2022-07-21T01:05:40;25.00;60.60
66568;DHT22;53422;49.296;6.900;2022-07-21T01:08:06;25.00;60.70
66568;DHT22;53422;49.296;6.900;2022-07-21T01:10:32;25.00;61.70
66568;DHT22;53422;49.296;6.900;2022-07-21T01:12:59;25.00;61.30
66568;DHT22;53422;49.296;6.900;2022-07-21T01:15:25;24.90;61.40
66568;DHT22;53422;49.296;6.900;2022-07-21T01:17:51;24.90;60.60
66568;DHT22;53422;49.296;6.900;2022-07-21T01:20:19;24.90;61.20
66568;DHT22;53422;49.296;6.900;2022-07-21T01:22:49;24.90;61.10
66568;DHT22;53422;49.296;6.900;2022-07-21T01:25:16;24.90;60.70
66568;DHT22;53422;49.296;6.900;2022-07-21T01:27:42;24.90;61.00
66568;DHT22;53422;49.296;6.900;2022-07-21T01:30:09;24.90;61.60
66568;DHT22;53422;49.296;6.900;2022-07-21T01:32:36;24.90;61.80
66568;DHT22;53422;49.296;6.900;2022-07-21T01:35:03;24.80;61.90
66568;DHT22;53422;49.296;6.900;2022-07-21T01:37:31;24.80;61.40
66568;DHT22;53422;49.296;6.900;2022-07-21T01:39:56;24.80;61.50
66568;DHT22;53422;49.296;6.900;2022-07-21T01:42:40;24.80;62.00
66568;DHT22;53422;49.296;6.900;2022-07-21T01:45:07;24.80;61.10
66568;DHT22;53422;49.296;6.900;2022-07-21T01:47:33;24.70;61.30
66568;DHT22;53422;49.296;6.900;2022-07-21T01:49:59;24.70;61.00
66568;DHT22;53422;49.296;6.900;2022-07-21T01:52:24;24.70;61.40
66568;DHT22;53422;49.296;6.900;2022-07-21T01:54:51;24.70;61.20
66568;DHT22;53422;49.296;6.900;2022-07-21T01:57:16;24.70;61.50
66568;DHT22;53422;49.296;6.900;2022-07-21T01:59:42;24.70;61.00
66568;DHT22;53422;49.296;6.900;2022-07-21T02:02:09;24.70;61.10
66568;DHT22;53422;49.296;6.900;2022-07-21T02:04:34;24.70;61.00
66568;DHT22;53422;49.296;6.900;2022-07-21T02:07:01;24.70;60.80
66568;DHT22;53422;49.296;6.900;2022-07-21T02:09:27;24.70;61.00
66568;DHT22;53422;49.296;6.900;2022-07-21T02:11:53;24.70;61.20
66568;DHT22;53422;49.296;6.900;2022-07-21T02:14:18;24.60;61.10
66568;DHT22;53422;49.296;6.900;2022-07-21T02:16:44;24.60;61.10
66568;DHT22;53422;49.296;6.900;2022-07-21T02:19:09;24.60;61.20
66568;DHT22;53422;49.296;6.900;2022-07-21T02:21:35;24.60;61.00
66568;DHT22;53422;49.296;6.900;2022-07-21T02:24:01;24.60;60.80
66568;DHT22;53422;49.296;6.900;2022-07-21T02:26:27;24.50;60.50
66568;DHT22;53422;49.296;6.900;2022-07-21T02:28:52;24.50;60.80
66568;DHT22;53422;49.296;6.900;2022-07-21T02:31:18;24.50;61.80
66568;DHT22;53422;49.296;6.900;2022-07-21T02:33:44;24.50;60.70
66568;DHT22;53422;49.296;6.900;2022-07-21T02:36:09;24.50;60.70
66568;DHT22;53422;49.296;6.900;2022-07-21T02:38:35;24.40;60.50
66568;DHT22;53422;49.296;6.900;2022-07-21T02:41:01;24.50;60.60
66568;DHT22;53422;49.296;6.900;2022-07-21T02:43:26;24.40;60.40
66568;DHT22;53422;49.296;6.900;2022-07-21T02:45:52;24.40;60.60
66568;DHT22;53422;49.296;6.900;2022-07-21T02:48:18;24.40;62.10
66568;DHT22;53422;49.296;6.900;2022-07-21T02:50:44;24.40;60.70
66568;DHT22;53422;49.296;6.900;2022-07-21T02:53:13;24.40;60.70
66568;DHT22;53422;49.296;6.900;2022-07-21T02:55:39;24.40;60.30
66568;DHT22;53422;49.296;6.900;2022-07-21T02:58:28;24.30;60.10
66568;DHT22;53422;49.296;6.900;2022-07-21T03:03:24;24.30;60.40
66568;DHT22;53422;49.296;6.900;2022-07-21T03:05:50;24.30;60.20
66568;DHT22;53422;49.296;6.900;2022-07-21T03:08:17;24.30;60.20
66568;DHT22;53422;49.296;6.900;2022-07-21T03:10:43;24.20;60.50
66568;DHT22;53422;49.296;6.900;2022-07-21T03:13:09;24.20;60.60
66568;DHT22;53422;49.296;6.900;2022-07-21T03:15:34;24.20;61.10
66568;DHT22;53422;49.296;6.900;2022-07-21T03:18:00;24.20;60.40
66568;DHT22;53422;49.296;6.900;2022-07-21T03:20:28;24.10;60.40
66568;DHT22;53422;49.296;6.900;2022-07-21T03:22:54;24.10;60.40
66568;DHT22;53422;49.296;6.900;2022-07-21T03:25:20;24.10;60.40
66568;DHT22;53422;49.296;6.900;2022-07-21T03:27:47;24.10;60.40
66568;DHT22;53422;49.296;6.900;2022-07-21T03:30:13;24.10;60.50
66568;DHT22;53422;49.296;6.900;2022-07-21T03:32:39;24.00;60.40
66568;DHT22;53422;49.296;6.900;2022-07-21T03:35:06;24.00;60.50
66568;DHT22;53422;49.296;6.900;2022-07-21T03:37:32;24.00;60.30
66568;DHT22;53422;49.296;6.900;2022-07-21T03:39:58;24.00;60.30
66568;DHT22;53422;49.296;6.900;2022-07-21T03:42:24;24.00;60.30
66568;DHT22;53422;49.296;6.900;2022-07-21T03:44:49;23.90;60.10
66568;DHT22;53422;49.296;6.900;2022-07-21T03:47:15;23.90;60.70
66568;DHT22;53422;49.296;6.900;2022-07-21T03:49:41;23.90;60.40
66568;DHT22;53422;49.296;6.900;2022-07-21T03:52:07;23.90;60.50
66568;DHT22;53422;49.296;6.900;2022-07-21T03:54:32;23.90;60.50
66568;DHT22;53422;49.296;6.900;2022-07-21T03:56:58;23.80;60.40
66568;DHT22;53422;49.296;6.900;2022-07-21T03:59:23;23.80;60.40
66568;DHT22;53422;49.296;6.900;2022-07-21T04:01:49;23.80;60.60
66568;DHT22;53422;49.296;6.900;2022-07-21T04:04:15;23.80;60.30
66568;DHT22;53422;49.296;6.900;2022-07-21T04:06:40;23.80;60.60
66568;DHT22;53422;49.296;6.900;2022-07-21T04:09:06;23.80;60.80
66568;DHT22;53422;49.296;6.900;2022-07-21T04:11:31;23.80;60.50
66568;DHT22;53422;49.296;6.900;2022-07-21T04:13:57;23.80;60.50
66568;DHT22;53422;49.296;6.900;2022-07-21T04:16:23;23.80;60.80
66568;DHT22;53422;49.296;6.900;2022-07-21T04:18:49;23.80;60.80
66568;DHT22;53422;49.296;6.900;2022-07-21T04:21:14;23.70;60.70
66568;DHT22;53422;49.296;6.900;2022-07-21T04:23:40;23.70;60.70
66568;DHT22;53422;49.296;6.900;2022-07-21T04:26:06;23.70;60.90
66568;DHT22;53422;49.296;6.900;2022-07-21T04:28:31;23.70;61.00
66568;DHT22;53422;49.296;6.900;2022-07-21T04:30:57;23.70;61.30
66568;DHT22;53422;49.296;6.900;2022-07-21T04:33:23;23.70;61.50
66568;DHT22;53422;49.296;6.900;2022-07-21T04:35:48;23.70;61.50
66568;DHT22;53422;49.296;6.900;2022-07-21T04:38:14;23.70;61.60
66568;DHT22;53422;49.296;6.900;2022-07-21T04:40:40;23.70;62.90
66568;DHT22;53422;49.296;6.900;2022-07-21T04:43:05;23.70;61.80
66568;DHT22;53422;49.296;6.900;2022-07-21T04:45:31;23.70;61.70
66568;DHT22;53422;49.296;6.900;2022-07-21T04:47:57;23.70;61.60
66568;DHT22;53422;49.296;6.900;2022-07-21T04:50:25;23.70;62.00
66568;DHT22;53422;49.296;6.900;2022-07-21T04:52:52;23.70;62.00
66568;DHT22;53422;49.296;6.900;2022-07-21T04:55:19;23.70;62.20
66568;DHT22;53422;49.296;6.900;2022-07-21T04:57:47;23.70;62.50
66568;DHT22;53422;49.296;6.900;2022-07-21T05:00:16;23.70;62.30
66568;DHT22;53422;49.296;6.900;2022-07-21T05:02:42;23.70;62.50
66568;DHT22;53422;49.296;6.900;2022-07-21T05:05:09;23.70;61.90
66568;DHT22;53422;49.296;6.900;2022-07-21T05:07:34;23.80;61.90
66568;DHT22;53422;49.296;6.900;2022-07-21T05:10:07;23.70;62.00
66568;DHT22;53422;49.296;6.900;2022-07-21T05:12:33;23.80;61.70
66568;DHT22;53422;49.296;6.900;2022-07-21T05:14:58;23.80;61.30
66568;DHT22;53422;49.296;6.900;2022-07-21T05:17:24;23.80;61.20
66568;DHT22;53422;49.296;6.900;2022-07-21T05:19:50;23.80;61.20
66568;DHT22;53422;49.296;6.900;2022-07-21T05:22:16;23.90;61.50
66568;DHT22;53422;49.296;6.900;2022-07-21T05:24:42;23.90;61.60
66568;DHT22;53422;49.296;6.900;2022-07-21T05:27:08;23.90;62.00
66568;DHT22;53422;49.296;6.900;2022-07-21T05:29:33;23.90;63.00
66568;DHT22;53422;49.296;6.900;2022-07-21T05:31:59;24.00;62.60
66568;DHT22;53422;49.296;6.900;2022-07-21T05:34:25;24.00;62.00
66568;DHT22;53422;49.296;6.900;2022-07-21T05:36:50;24.10;61.80
66568;DHT22;53422;49.296;6.900;2022-07-21T05:39:16;24.10;61.30
66568;DHT22;53422;49.296;6.900;2022-07-21T05:41:41;24.20;61.40
66568;DHT22;53422;49.296;6.900;2022-07-21T05:44:07;24.20;61.40
66568;DHT22;53422;49.296;6.900;2022-07-21T05:46:32;24.20;62.50
66568;DHT22;53422;49.296;6.900;2022-07-21T05:48:58;24.20;61.40
66568;DHT22;53422;49.296;6.900;2022-07-21T05:51:24;24.30;61.40
66568;DHT22;53422;49.296;6.900;2022-07-21T05:53:49;24.30;62.30
66568;DHT22;53422;49.296;6.900;2022-07-21T05:56:15;24.30;61.90
66568;DHT22;53422;49.296;6.900;2022-07-21T05:58:40;24.30;62.80
66568;DHT22;53422;49.296;6.900;2022-07-21T06:01:06;24.30;63.00
66568;DHT22;53422;49.296;6.900;2022-07-21T06:03:36;24.30;63.00
66568;DHT22;53422;49.296;6.900;2022-07-21T06:06:02;24.30;62.30
66568;DHT22;53422;49.296;6.900;2022-07-21T06:08:28;24.30;61.90
66568;DHT22;53422;49.296;6.900;2022-07-21T06:10:54;24.40;61.20
66568;DHT22;53422;49.296;6.900;2022-07-21T06:13:20;24.40;62.10
66568;DHT22;53422;49.296;6.900;2022-07-21T06:15:45;24.40;63.10
66568;DHT22;53422;49.296;6.900;2022-07-21T06:18:11;24.40;62.60
66568;DHT22;53422;49.296;6.900;2022-07-21T06:20:37;24.50;61.30
66568;DHT22;53422;49.296;6.900;2022-07-21T06:23:02;24.50;61.80
66568;DHT22;53422;49.296;6.900;2022-07-21T06:25:28;24.50;62.10
66568;DHT22;53422;49.296;6.900;2022-07-21T06:27:54;24.50;62.50
66568;DHT22;53422;49.296;6.900;2022-07-21T06:30:19;24.60;60.70
66568;DHT22;53422;49.296;6.900;2022-07-21T06:32:45;24.60;61.00
66568;DHT22;53422;49.296;6.900;2022-07-21T06:35:11;24.60;61.20
66568;DHT22;53422;49.296;6.900;2022-07-21T06:37:36;24.70;61.20
66568;DHT22;53422;49.296;6.900;2022-07-21T06:40:03;24.70;60.40
66568;DHT22;53422;49.296;6.900;2022-07-21T06:42:29;24.80;60.20
66568;DHT22;53422;49.296;6.900;2022-07-21T06:44:55;24.80;60.40
66568;DHT22;53422;49.296;6.900;2022-07-21T06:47:21;24.80;60.80
66568;DHT22;53422;49.296;6.900;2022-07-21T06:49:46;24.90;60.50
66568;DHT22;53422;49.296;6.900;2022-07-21T06:52:12;24.90;60.40
66568;DHT22;53422;49.296;6.900;2022-07-21T06:54:38;25.00;60.40
66568;DHT22;53422;49.296;6.900;2022-07-21T06:57:04;25.00;61.80
66568;DHT22;53422;49.296;6.900;2022-07-21T06:59:31;25.10;60.20
66568;DHT22;53422;49.296;6.900;2022-07-21T07:01:57;25.00;61.60
66568;DHT22;53422;49.296;6.900;2022-07-21T07:04:24;25.00;60.90
66568;DHT22;53422;49.296;6.900;2022-07-21T07:06:50;25.10;62.40
66568;DHT22;53422;49.296;6.900;2022-07-21T07:09:18;25.00;63.00
66568;DHT22;53422;49.296;6.900;2022-07-21T07:11:44;25.10;62.20
66568;DHT22;53422;49.296;6.900;2022-07-21T07:14:12;25.00;62.60
66568;DHT22;53422;49.296;6.900;2022-07-21T07:16:39;25.10;61.30
66568;DHT22;53422;49.296;6.900;2022-07-21T07:19:04;25.20;60.90
66568;DHT22;53422;49.296;6.900;2022-07-21T07:21:30;25.20;61.00
66568;DHT22;53422;49.296;6.900;2022-07-21T07:23:55;25.20;60.80
66568;DHT22;53422;49.296;6.900;2022-07-21T07:26:21;25.20;61.10
66568;DHT22;53422;49.296;6.900;2022-07-21T07:28:46;25.30;61.20
66568;DHT22;53422;49.296;6.900;2022-07-21T07:31:12;25.20;61.90
66568;DHT22;53422;49.296;6.900;2022-07-21T07:33:38;25.30;62.40
66568;DHT22;53422;49.296;6.900;2022-07-21T07:36:03;25.40;62.30
66568;DHT22;53422;49.296;6.900;2022-07-21T07:38:29;25.40;61.70
66568;DHT22;53422;49.296;6.900;2022-07-21T07:40:55;25.50;62.80
66568;DHT22;53422;49.296;6.900;2022-07-21T07:43:20;25.60;61.80
66568;DHT22;53422;49.296;6.900;2022-07-21T07:45:46;25.70;62.20
66568;DHT22;53422;49.296;6.900;2022-07-21T07:48:12;25.70;60.70
66568;DHT22;53422;49.296;6.900;2022-07-21T07:50:37;25.80;59.90
66568;DHT22;53422;49.296;6.900;2022-07-21T07:53:03;26.00;59.70
66568;DHT22;53422;49.296;6.900;2022-07-21T07:55:29;26.10;60.00
66568;DHT22;53422;49.296;6.900;2022-07-21T07:57:54;26.10;59.10
66568;DHT22;53422;49.296;6.900;2022-07-21T08:00:20;26.10;59.10
66568;DHT22;53422;49.296;6.900;2022-07-21T08:02:46;26.30;58.00
66568;DHT22;53422;49.296;6.900;2022-07-21T08:05:12;26.30;56.80
66568;DHT22;53422;49.296;6.900;2022-07-21T08:07:38;26.40;58.00
66568;DHT22;53422;49.296;6.900;2022-07-21T08:10:09;26.50;57.50
66568;DHT22;53422;49.296;6.900;2022-07-21T08:12:35;26.50;58.10
66568;DHT22;53422;49.296;6.900;2022-07-21T08:15:02;26.50;57.40
66568;DHT22;53422;49.296;6.900;2022-07-21T08:17:28;26.60;56.90
66568;DHT22;53422;49.296;6.900;2022-07-21T08:19:53;26.60;57.30
66568;DHT22;53422;49.296;6.900;2022-07-21T08:22:19;26.70;57.10
66568;DHT22;53422;49.296;6.900;2022-07-21T08:24:44;26.80;57.10
66568;DHT22;53422;49.296;6.900;2022-07-21T08:27:10;26.80;56.30
66568;DHT22;53422;49.296;6.900;2022-07-21T08:29:36;26.90;56.20
66568;DHT22;53422;49.296;6.900;2022-07-21T08:32:02;26.90;56.30
66568;DHT22;53422;49.296;6.900;2022-07-21T08:34:27;27.00;55.90
66568;DHT22;53422;49.296;6.900;2022-07-21T08:36:53;27.00;55.90
66568;DHT22;53422;49.296;6.900;2022-07-21T08:39:19;27.00;55.50
66568;DHT22;53422;49.296;6.900;2022-07-21T08:41:45;27.00;55.80
66568;DHT22;53422;49.296;6.900;2022-07-21T08:44:11;27.00;55.00
66568;DHT22;53422;49.296;6.900;2022-07-21T08:46:41;27.00;54.90
66568;DHT22;53422;49.296;6.900;2022-07-21T08:49:09;27.00;55.30
66568;DHT22;53422;49.296;6.900;2022-07-21T08:51:35;26.90;55.40
66568;DHT22;53422;49.296;6.900;2022-07-21T08:54:02;27.00;54.60
66568;DHT22;53422;49.296;6.900;2022-07-21T08:56:28;27.10;54.40
66568;DHT22;53422;49.296;6.900;2022-07-21T08:58:54;27.10;54.60
66568;DHT22;53422;49.296;6.900;2022-07-21T09:01:19;27.20;54.50
66568;DHT22;53422;49.296;6.900;2022-07-21T09:03:52;27.20;54.50
66568;DHT22;53422;49.296;6.900;2022-07-21T09:06:18;27.30;54.50
66568;DHT22;53422;49.296;6.900;2022-07-21T09:08:52;27.40;54.30
66568;DHT22;53422;49.296;6.900;2022-07-21T09:11:23;27.40;55.00
66568;DHT22;53422;49.296;6.900;2022-07-21T09:14:04;27.40;53.90
66568;DHT22;53422;49.296;6.900;2022-07-21T09:16:38;27.40;54.10
66568;DHT22;53422;49.296;6.900;2022-07-21T09:19:05;27.40;53.90
66568;DHT22;53422;49.296;6.900;2022-07-21T09:21:34;27.40;53.60
66568;DHT22;53422;49.296;6.900;2022-07-21T09:29:23;27.40;53.60
66568;DHT22;53422;49.296;6.900;2022-07-21T09:31:49;27.50;53.70
66568;DHT22;53422;49.296;6.900;2022-07-21T09:34:14;27.50;53.40
66568;DHT22;53422;49.296;6.900;2022-07-21T09:36:54;27.50;52.50
66568;DHT22;53422;49.296;6.900;2022-07-21T09:39:50;27.50;51.40
66568;DHT22;53422;49.296;6.900;2022-07-21T09:42:23;27.50;51.90
66568;DHT22;53422;49.296;6.900;2022-07-21T09:44:52;27.60;51.90
66568;DHT22;53422;49.296;6.900;2022-07-21T09:47:19;27.60;51.80
66568;DHT22;53422;49.296;6.900;2022-07-21T09:49:46;27.70;52.00
66568;DHT22;53422;49.296;6.900;2022-07-21T09:54:47;27.80;51.20
66568;DHT22;53422;49.296;6.900;2022-07-21T09:57:15;27.80;51.50
66568;DHT22;53422;49.296;6.900;2022-07-21T09:59:43;28.00;51.40
66568;DHT22;53422;49.296;6.900;2022-07-21T10:02:20;28.00;50.90
66568;DHT22;53422;49.296;6.900;2022-07-21T10:04:50;28.10;50.80
66568;DHT22;53422;49.296;6.900;2022-07-21T10:07:18;28.20;51.20
66568;DHT22;53422;49.296;6.900;2022-07-21T10:09:44;28.30;49.80
66568;DHT22;53422;49.296;6.900;2022-07-21T10:12:10;28.30;49.80
66568;DHT22;53422;49.296;6.900;2022-07-21T10:14:35;28.40;49.00
66568;DHT22;53422;49.296;6.900;2022-07-21T10:17:01;27.90;50.00
66568;DHT22;53422;49.296;6.900;2022-07-21T10:19:35;27.80;49.40
66568;DHT22;53422;49.296;6.900;2022-07-21T10:24:40;28.30;49.10
66568;DHT22;53422;49.296;6.900;2022-07-21T10:27:13;28.40;48.80
66568;DHT22;53422;49.296;6.900;2022-07-21T10:29:57;28.50;48.30
66568;DHT22;53422;49.296;6.900;2022-07-21T10:32:36;28.60;48.10
66568;DHT22;53422;49.296;6.900;2022-07-21T10:35:29;28.60;47.90
66568;DHT22;53422;49.296;6.900;2022-07-21T10:37:55;28.70;47.50
66568;DHT22;53422;49.296;6.900;2022-07-21T10:45:38;28.90;48.00
66568;DHT22;53422;49.296;6.900;2022-07-21T10:50:57;28.90;47.90
66568;DHT22;53422;49.296;6.900;2022-07-21T10:53:23;29.00;47.90
66568;DHT22;53422;49.296;6.900;2022-07-21T10:55:54;29.00;48.10
66568;DHT22;53422;49.296;6.900;2022-07-21T11:00:51;29.10;47.60
66568;DHT22;53422;49.296;6.900;2022-07-21T11:06:20;29.10;47.20
66568;DHT22;53422;49.296;6.900;2022-07-21T11:11:31;29.10;46.50
66568;DHT22;53422;49.296;6.900;2022-07-21T11:22:13;29.30;46.90
66568;DHT22;53422;49.296;6.900;2022-07-21T11:24:43;29.30;46.40
66568;DHT22;53422;49.296;6.900;2022-07-21T11:27:21;29.30;46.60
66568;DHT22;53422;49.296;6.900;2022-07-21T11:29:48;29.30;45.90
66568;DHT22;53422;49.296;6.900;2022-07-21T11:32:15;29.40;46.40
66568;DHT22;53422;49.296;6.900;2022-07-21T11:39:55;29.50;45.70
66568;DHT22;53422;49.296;6.900;2022-07-21T11:42:21;29.60;45.90
66568;DHT22;53422;49.296;6.900;2022-07-21T11:44:47;29.80;45.60
66568;DHT22;53422;49.296;6.900;2022-07-21T11:47:14;29.90;45.20
66568;DHT22;53422;49.296;6.900;2022-07-21T11:49:41;30.00;44.80
66568;DHT22;53422;49.296;6.900;2022-07-21T11:52:11;30.20;44.20
66568;DHT22;53422;49.296;6.900;2022-07-21T11:54:44;30.30;44.60
66568;DHT22;53422;49.296;6.900;2022-07-21T11:57:11;30.50;44.20
66568;DHT22;53422;49.296;6.900;2022-07-21T11:59:37;30.50;44.90
66568;DHT22;53422;49.296;6.900;2022-07-21T12:02:13;30.70;43.90
66568;DHT22;53422;49.296;6.900;2022-07-21T12:04:43;30.70;44.00
66568;DHT22;53422;49.296;6.900;2022-07-21T12:09:41;30.80;43.60
66568;DHT22;53422;49.296;6.900;2022-07-21T12:12:07;29.60;42.90
66568;DHT22;53422;49.296;6.900;2022-07-21T12:14:48;28.70;44.90
66568;DHT22;53422;49.296;6.900;2022-07-21T12:17:16;28.60;45.40
66568;DHT22;53422;49.296;6.900;2022-07-21T12:19:42;29.30;44.90
66568;DHT22;53422;49.296;6.900;2022-07-21T12:22:08;29.10;44.50
66568;DHT22;53422;49.296;6.900;2022-07-21T12:24:51;29.70;44.20
66568;DHT22;53422;49.296;6.900;2022-07-21T12:27:18;30.00;42.80
66568;DHT22;53422;49.296;6.900;2022-07-21T12:29:45;29.70;43.70
66568;DHT22;53422;49.296;6.900;2022-07-21T12:32:11;29.90;43.70
66568;DHT22;53422;49.296;6.900;2022-07-21T12:34:50;29.70;42.70
66568;DHT22;53422;49.296;6.900;2022-07-21T12:37:17;29.60;42.90
66568;DHT22;53422;49.296;6.900;2022-07-21T12:39:43;29.80;43.60
66568;DHT22;53422;49.296;6.900;2022-07-21T12:42:39;30.20;43.00
66568;DHT22;53422;49.296;6.900;2022-07-21T12:45:16;30.70;43.40
66568;DHT22;53422;49.296;6.900;2022-07-21T12:47:42;30.30;41.90
66568;DHT22;53422;49.296;6.900;2022-07-21T12:50:13;30.50;42.10
66568;DHT22;53422;49.296;6.900;2022-07-21T12:52:39;30.70;41.40
66568;DHT22;53422;49.296;6.900;2022-07-21T12:55:05;30.10;41.30
66568;DHT22;53422;49.296;6.900;2022-07-21T12:57:32;29.30;42.30
66568;DHT22;53422;49.296;6.900;2022-07-21T13:00:00;29.20;43.60
66568;DHT22;53422;49.296;6.900;2022-07-21T13:02:26;29.40;43.40
66568;DHT22;53422;49.296;6.900;2022-07-21T13:04:54;29.10;43.50
66568;DHT22;53422;49.296;6.900;2022-07-21T13:07:20;29.20;43.40
66568;DHT22;53422;49.296;6.900;2022-07-21T13:09:46;30.10;42.30
66568;DHT22;53422;49.296;6.900;2022-07-21T13:12:14;29.90;40.00
66568;DHT22;53422;49.296;6.900;2022-07-21T13:14:41;29.30;41.90
66568;DHT22;53422;49.296;6.900;2022-07-21T13:17:07;29.20;42.50
66568;DHT22;53422;49.296;6.900;2022-07-21T13:19:34;29.90;42.00
66568;DHT22;53422;49.296;6.900;2022-07-21T13:22:02;29.70;42.60
66568;DHT22;53422;49.296;6.900;2022-07-21T13:24:28;30.10;40.70
66568;DHT22;53422;49.296;6.900;2022-07-21T13:26:54;30.10;40.80
66568;DHT22;53422;49.296;6.900;2022-07-21T13:29:20;30.10;42.00
66568;DHT22;53422;49.296;6.900;2022-07-21T13:31:45;30.60;40.70
66568;DHT22;53422;49.296;6.900;2022-07-21T13:34:11;30.80;40.10
66568;DHT22;53422;49.296;6.900;2022-07-21T13:36:37;30.60;40.60
66568;DHT22;53422;49.296;6.900;2022-07-21T13:39:05;30.90;40.60
66568;DHT22;53422;49.296;6.900;2022-07-21T13:41:32;30.60;40.50
66568;DHT22;53422;49.296;6.900;2022-07-21T13:43:59;30.80;39.90
66568;DHT22;53422;49.296;6.900;2022-07-21T13:46:24;31.00;40.10
66568;DHT22;53422;49.296;6.900;2022-07-21T13:48:54;30.90;39.80
66568;DHT22;53422;49.296;6.900;2022-07-21T13:51:20;30.40;40.00
66568;DHT22;53422;49.296;6.900;2022-07-21T13:53:48;30.00;40.50
66568;DHT22;53422;49.296;6.900;2022-07-21T13:56:15;29.70;41.20
66568;DHT22;53422;49.296;6.900;2022-07-21T13:58:41;29.30;42.10
66568;DHT22;53422;49.296;6.900;2022-07-21T14:01:08;29.40;43.00
66568;DHT22;53422;49.296;6.900;2022-07-21T14:03:34;29.90;43.20
66568;DHT22;53422;49.296;6.900;2022-07-21T14:06:01;29.70;42.80
66568;DHT22;53422;49.296;6.900;2022-07-21T14:08:26;29.30;42.80
66568;DHT22;53422;49.296;6.900;2022-07-21T14:10:54;30.00;42.50
66568;DHT22;53422;49.296;6.900;2022-07-21T14:13:19;30.30;41.90
66568;DHT22;53422;49.296;6.900;2022-07-21T14:15:45;30.60;41.20
66568;DHT22;53422;49.296;6.900;2022-07-21T14:18:10;30.80;40.40
66568;DHT22;53422;49.296;6.900;2022-07-21T14:20:37;31.10;41.30
66568;DHT22;53422;49.296;6.900;2022-07-21T14:23:03;31.20;39.60
66568;DHT22;53422;49.296;6.900;2022-07-21T14:25:28;31.40;39.70
66568;DHT22;53422;49.296;6.900;2022-07-21T14:27:55;31.20;39.50
66568;DHT22;53422;49.296;6.900;2022-07-21T14:30:22;31.30;40.20
66568;DHT22;53422;49.296;6.900;2022-07-21T14:32:48;31.30;39.70
66568;DHT22;53422;49.296;6.900;2022-07-21T14:35:15;31.30;39.00
66568;DHT22;53422;49.296;6.900;2022-07-21T14:37:42;31.30;39.00
66568;DHT22;53422;49.296;6.900;2022-07-21T14:40:09;31.30;39.30
66568;DHT22;53422;49.296;6.900;2022-07-21T14:42:35;31.40;39.00
66568;DHT22;53422;49.296;6.900;2022-07-21T14:45:02;31.50;39.00
66568;DHT22;53422;49.296;6.900;2022-07-21T14:47:28;31.40;38.00
66568;DHT22;53422;49.296;6.900;2022-07-21T14:49:55;31.40;38.90
66568;DHT22;53422;49.296;6.900;2022-07-21T14:52:21;31.20;38.80
66568;DHT22;53422;49.296;6.900;2022-07-21T14:54:47;31.30;38.40
66568;DHT22;53422;49.296;6.900;2022-07-21T14:57:12;31.40;38.40
66568;DHT22;53422;49.296;6.900;2022-07-21T14:59:38;31.50;38.30
66568;DHT22;53422;49.296;6.900;2022-07-21T15:02:04;31.50;38.10
66568;DHT22;53422;49.296;6.900;2022-07-21T15:04:30;31.50;38.70
66568;DHT22;53422;49.296;6.900;2022-07-21T15:06:55;31.50;38.00
66568;DHT22;53422;49.296;6.900;2022-07-21T15:09:21;31.50;37.90
66568;DHT22;53422;49.296;6.900;2022-07-21T15:11:47;31.50;38.10
66568;DHT22;53422;49.296;6.900;2022-07-21T15:14:13;31.60;38.40
66568;DHT22;53422;49.296;6.900;2022-07-21T15:16:38;31.50;37.70
66568;DHT22;53422;49.296;6.900;2022-07-21T15:19:04;31.50;37.90
66568;DHT22;53422;49.296;6.900;2022-07-21T15:21:29;31.50;37.50
66568;DHT22;53422;49.296;6.900;2022-07-21T15:23:55;31.60;38.30
66568;DHT22;53422;49.296;6.900;2022-07-21T15:26:21;31.50;38.20
66568;DHT22;53422;49.296;6.900;2022-07-21T15:28:46;31.20;37.70
66568;DHT22;53422;49.296;6.900;2022-07-21T15:31:12;31.20;38.50
66568;DHT22;53422;49.296;6.900;2022-07-21T15:33:37;31.00;37.50
66568;DHT22;53422;49.296;6.900;2022-07-21T15:36:04;31.00;38.40
66568;DHT22;53422;49.296;6.900;2022-07-21T15:38:29;31.10;38.20
66568;DHT22;53422;49.296;6.900;2022-07-21T15:40:55;31.10;38.00
66568;DHT22;53422;49.296;6.900;2022-07-21T15:43:21;31.00;38.40
66568;DHT22;53422;49.296;6.900;2022-07-21T15:45:46;30.90;38.70
66568;DHT22;53422;49.296;6.900;2022-07-21T15:48:12;30.90;39.10
66568;DHT22;53422;49.296;6.900;2022-07-21T15:50:39;30.90;38.30
66568;DHT22;53422;49.296;6.900;2022-07-21T15:53:05;30.90;38.80
66568;DHT22;53422;49.296;6.900;2022-07-21T15:55:31;30.80;38.50
66568;DHT22;53422;49.296;6.900;2022-07-21T15:57:57;30.80;39.30
66568;DHT22;53422;49.296;6.900;2022-07-21T16:00:23;30.80;38.90
66568;DHT22;53422;49.296;6.900;2022-07-21T16:02:49;30.70;39.00
66568;DHT22;53422;49.296;6.900;2022-07-21T16:05:17;30.60;38.40
66568;DHT22;53422;49.296;6.900;2022-07-21T16:07:44;30.50;38.60
66568;DHT22;53422;49.296;6.900;2022-07-21T16:10:11;30.40;40.00
66568;DHT22;53422;49.296;6.900;2022-07-21T16:12:37;30.40;39.40
66568;DHT22;53422;49.296;6.900;2022-07-21T16:15:05;30.30;39.10
66568;DHT22;53422;49.296;6.900;2022-07-21T16:17:31;30.30;39.70